高雄國際航空站 - ATIS

METAR RCKH 311030Z 26009KT 230V300 9999 FEW015 SCT020 29/26 Q1010 NOSIG RMK A2985=

站台狀態:Offline
最後更新:2020-05-31 18:30:01